createdAt,value
2022-12-20T00:03:22.685Z,12.10
2022-12-20T00:08:24.842Z,12.00
2022-12-20T00:13:26.658Z,12.20
2022-12-20T00:18:28.403Z,12.10
2022-12-20T00:23:30.215Z,12.10
2022-12-20T00:28:33.731Z,12.10
2022-12-20T00:33:37.454Z,12.10
2022-12-20T00:38:40.482Z,12.10
2022-12-20T00:43:45.807Z,12.10
2022-12-20T00:48:47.864Z,11.90
2022-12-20T00:53:49.726Z,11.60
2022-12-20T00:58:52.049Z,11.50
2022-12-20T01:03:54.535Z,11.40
2022-12-20T01:08:57.088Z,11.50
2022-12-20T01:14:02.252Z,11.30
2022-12-20T01:19:05.196Z,11.20
2022-12-20T01:24:07.077Z,11.20
2022-12-20T01:29:11.099Z,11.20
2022-12-20T01:34:12.976Z,11.20
2022-12-20T01:39:16.456Z,11.20
2022-12-20T01:44:18.157Z,11.20
2022-12-20T01:49:32.454Z,11.20
2022-12-20T01:54:38.336Z,11.20
2022-12-20T01:59:43.398Z,11.20
2022-12-20T02:04:45.231Z,11.10
2022-12-20T02:09:47.592Z,11.00
2022-12-20T02:15:11.343Z,11.10
2022-12-20T02:20:34.360Z,11.30
2022-12-20T02:26:09.950Z,11.40
2022-12-20T02:31:15.137Z,11.40
2022-12-20T02:36:18.524Z,11.50
2022-12-20T02:41:52.023Z,11.50
2022-12-20T02:46:56.023Z,11.40
2022-12-20T02:52:03.208Z,11.40
2022-12-20T02:57:25.527Z,11.30
2022-12-20T03:02:28.248Z,11.30
2022-12-20T03:07:34.528Z,11.30
2022-12-20T03:12:36.788Z,11.30
2022-12-20T03:17:38.668Z,11.30
2022-12-20T03:22:40.503Z,11.30
2022-12-20T03:27:42.492Z,11.30
2022-12-20T03:32:44.255Z,11.40
2022-12-20T03:37:46.095Z,11.40
2022-12-20T03:42:48.046Z,11.40
2022-12-20T03:47:49.835Z,11.40
2022-12-20T03:52:51.672Z,11.50
2022-12-20T03:57:53.496Z,11.30
2022-12-20T04:02:58.429Z,11.30
2022-12-20T04:08:00.674Z,11.20
2022-12-20T04:13:02.485Z,11.10
2022-12-20T04:18:04.592Z,11.10
2022-12-20T04:23:06.351Z,11.10
2022-12-20T04:28:08.115Z,11.00
2022-12-20T04:33:12.583Z,10.90
2022-12-20T04:38:15.128Z,11.00
2022-12-20T04:43:18.178Z,11.00
2022-12-20T04:48:55.337Z,11.10
2022-12-20T04:53:48.563Z,11.10
2022-12-20T04:58:52.563Z,11.30
2022-12-20T05:03:54.668Z,11.40
2022-12-20T05:08:56.624Z,11.20
2022-12-20T05:13:58.582Z,11.50
2022-12-20T05:19:00.403Z,11.50
2022-12-20T05:24:20.872Z,11.30
2022-12-20T05:29:22.806Z,11.50
2022-12-20T05:34:24.744Z,11.40
2022-12-20T05:39:26.702Z,11.40
2022-12-20T05:44:28.422Z,11.30
2022-12-20T05:49:30.186Z,11.20
2022-12-20T05:54:32.019Z,11.20
2022-12-20T05:59:33.803Z,11.10
2022-12-20T06:04:36.628Z,11.30
2022-12-20T06:09:38.393Z,11.20
2022-12-20T06:14:40.185Z,11.20
2022-12-20T06:19:42.173Z,11.30
2022-12-20T06:24:48.325Z,11.20
2022-12-20T06:29:54.334Z,11.10
2022-12-20T06:34:56.262Z,11.10
2022-12-20T06:39:58.541Z,11.10
2022-12-20T06:45:00.336Z,11.20
2022-12-20T06:50:02.155Z,11.30
2022-12-20T06:55:04.222Z,11.40
2022-12-20T07:00:08.484Z,11.50
2022-12-20T07:05:10.378Z,11.50
2022-12-20T07:10:14.740Z,11.60
2022-12-20T07:15:17.030Z,11.60
2022-12-20T07:20:19.307Z,11.70
2022-12-20T07:25:21.277Z,11.50
2022-12-20T07:30:23.529Z,11.50
2022-12-20T07:35:25.319Z,11.40
2022-12-20T07:40:27.904Z,11.40
2022-12-20T07:45:30.032Z,11.30
2022-12-20T07:50:34.347Z,11.30
2022-12-20T07:55:38.047Z,11.20
2022-12-20T08:00:39.963Z,11.20
2022-12-20T08:05:45.536Z,11.10
2022-12-20T08:10:47.459Z,11.00
2022-12-20T08:15:49.366Z,10.80
2022-12-20T08:20:51.086Z,10.80
2022-12-20T08:25:53.058Z,10.70
2022-12-20T08:31:02.214Z,10.70
2022-12-20T08:36:06.497Z,10.70
2022-12-20T08:41:13.294Z,10.80
2022-12-20T08:46:15.062Z,10.80
2022-12-20T08:51:17.034Z,10.90
2022-12-20T08:56:19.967Z,10.90
2022-12-20T09:01:22.886Z,10.90
2022-12-20T09:06:24.924Z,11.00
2022-12-20T09:11:27.580Z,11.00
2022-12-20T09:16:31.603Z,11.10
2022-12-20T09:21:34.498Z,11.20
2022-12-20T09:26:36.600Z,11.30
2022-12-20T09:31:38.550Z,11.20
2022-12-20T09:36:40.507Z,11.30
2022-12-20T09:41:44.159Z,11.30
2022-12-20T09:46:57.209Z,11.30
2022-12-20T09:52:26.817Z,11.30
2022-12-20T09:57:59.124Z,11.30
2022-12-20T10:03:10.153Z,11.30
2022-12-20T10:08:30.416Z,11.20
2022-12-20T10:13:55.546Z,11.20
2022-12-20T10:19:12.329Z,11.20
2022-12-20T10:24:19.425Z,11.20
2022-12-20T10:29:21.241Z,11.20
2022-12-20T10:34:23.754Z,11.20
2022-12-20T10:39:42.582Z,11.20
2022-12-20T10:44:44.479Z,11.20
2022-12-20T10:49:46.229Z,11.20
2022-12-20T10:54:48.285Z,11.20
2022-12-20T10:59:54.789Z,11.10
2022-12-20T11:05:11.679Z,11.10
2022-12-20T11:10:25.491Z,11.10
2022-12-20T11:15:37.057Z,11.10
2022-12-20T11:20:44.517Z,11.00
2022-12-20T11:26:08.625Z,11.00
2022-12-20T11:31:21.230Z,11.00
2022-12-20T11:36:36.533Z,11.00
2022-12-20T11:42:00.113Z,11.00
2022-12-20T11:47:09.307Z,11.10
2022-12-20T11:52:24.634Z,11.10
2022-12-20T11:57:42.588Z,11.10
2022-12-20T12:03:01.815Z,11.00
2022-12-20T12:08:13.520Z,11.00
2022-12-20T12:13:27.616Z,10.90
2022-12-20T12:18:34.812Z,10.90
2022-12-20T12:23:54.816Z,10.90
2022-12-20T12:29:09.584Z,10.90
2022-12-20T12:34:49.100Z,10.80
2022-12-20T12:40:18.101Z,10.80
2022-12-20T12:45:20.100Z,10.70
2022-12-20T12:50:33.539Z,10.70
2022-12-20T12:55:50.545Z,10.70
2022-12-20T13:01:01.229Z,10.60
2022-12-20T13:06:30.977Z,10.70
2022-12-20T13:11:42.756Z,10.60
2022-12-20T13:17:11.591Z,10.60
2022-12-20T13:22:20.094Z,10.60
2022-12-20T13:27:30.941Z,10.60
2022-12-20T13:32:47.746Z,10.60
2022-12-20T13:37:54.992Z,10.60
2022-12-20T13:42:59.026Z,10.60
2022-12-20T13:48:11.485Z,10.60
2022-12-20T13:53:22.274Z,10.50
2022-12-20T13:58:30.819Z,10.50
2022-12-20T14:03:33.280Z,10.60
2022-12-20T14:08:39.509Z,10.60
2022-12-20T14:13:42.284Z,10.60
2022-12-20T14:19:06.979Z,10.50
2022-12-20T14:24:16.907Z,10.50
2022-12-20T14:29:25.084Z,10.50
2022-12-20T14:34:30.899Z,10.50
2022-12-20T14:39:36.113Z,10.60
2022-12-20T14:44:38.498Z,10.60
2022-12-20T14:49:40.824Z,10.60
2022-12-20T14:55:09.346Z,10.50
2022-12-20T15:00:21.216Z,10.50
2022-12-20T15:05:35.861Z,10.50
2022-12-20T15:10:38.050Z,10.50
2022-12-20T15:15:40.103Z,10.50
2022-12-20T15:20:43.921Z,10.40
2022-12-20T15:25:46.170Z,10.40
2022-12-20T15:30:49.709Z,10.40
2022-12-20T15:35:52.319Z,10.40
2022-12-20T15:40:56.593Z,10.40
2022-12-20T15:45:58.374Z,10.40
2022-12-20T15:51:00.213Z,10.30
2022-12-20T15:56:02.071Z,10.30
2022-12-20T16:01:03.869Z,10.30
2022-12-20T16:06:06.229Z,10.30
2022-12-20T16:11:28.533Z,10.30
2022-12-20T16:16:36.016Z,10.30
2022-12-20T16:21:45.767Z,10.30
2022-12-20T16:26:51.619Z,10.30
2022-12-20T16:31:53.444Z,10.30
2022-12-20T16:36:55.278Z,10.30
2022-12-20T16:41:57.033Z,10.30
2022-12-20T16:46:58.924Z,10.30
2022-12-20T16:52:00.865Z,10.30
2022-12-20T16:57:02.647Z,10.30
2022-12-20T17:02:31.645Z,10.30
2022-12-20T17:07:39.563Z,10.30
2022-12-20T17:12:43.910Z,10.30
2022-12-20T17:17:46.044Z,10.30
2022-12-20T17:22:53.793Z,10.30
2022-12-20T17:27:56.215Z,10.30
2022-12-20T17:32:58.154Z,10.30
2022-12-20T17:38:00.577Z,10.30
2022-12-20T17:43:02.839Z,10.30
2022-12-20T17:48:05.065Z,10.30
2022-12-20T17:53:08.687Z,10.30
2022-12-20T17:58:11.258Z,10.30
2022-12-20T18:03:45.009Z,10.30
2022-12-20T18:08:35.174Z,10.30
2022-12-20T18:13:37.067Z,10.30
2022-12-20T18:18:39.006Z,10.30
2022-12-20T18:23:41.692Z,10.30
2022-12-20T18:28:46.372Z,10.30
2022-12-20T18:33:53.893Z,10.30
2022-12-20T18:39:01.346Z,10.30
2022-12-20T18:44:05.465Z,10.30
2022-12-20T18:49:07.319Z,10.30
2022-12-20T18:54:12.131Z,10.30
2022-12-20T18:59:14.316Z,10.20
2022-12-20T19:04:22.485Z,10.30
2022-12-20T19:09:26.312Z,10.30
2022-12-20T19:14:28.142Z,10.30
2022-12-20T19:19:30.027Z,10.20
2022-12-20T19:24:31.942Z,10.30
2022-12-20T19:29:33.760Z,10.30
2022-12-20T19:34:35.627Z,10.30
2022-12-20T19:39:37.597Z,10.30
2022-12-20T19:44:39.468Z,10.30
2022-12-20T19:49:41.247Z,10.30
2022-12-20T19:54:43.591Z,10.20
2022-12-20T19:59:49.705Z,10.30
2022-12-20T20:04:55.647Z,10.30
2022-12-20T20:09:57.884Z,10.20
2022-12-20T20:14:59.749Z,10.20
2022-12-20T20:20:02.267Z,10.20
2022-12-20T20:25:05.160Z,10.20
2022-12-20T20:30:07.919Z,10.20
2022-12-20T20:35:11.114Z,10.20
2022-12-20T20:40:15.451Z,10.20
2022-12-20T20:45:17.348Z,10.20
2022-12-20T20:50:19.097Z,10.20
2022-12-20T20:55:20.865Z,10.20
2022-12-20T21:00:22.800Z,10.10
2022-12-20T21:10:46.711Z,10.10
2022-12-20T21:15:48.587Z,10.10
2022-12-20T21:20:50.453Z,10.20
2022-12-20T21:25:57.201Z,10.10
2022-12-20T21:31:03.529Z,10.10
2022-12-20T21:36:11.742Z,10.10
2022-12-20T21:41:16.675Z,10.10
2022-12-20T21:46:18.535Z,10.10
2022-12-20T21:51:22.412Z,10.10
2022-12-20T21:56:26.716Z,10.10
2022-12-20T22:01:34.328Z,10.10
2022-12-20T22:06:36.514Z,10.10
2022-12-20T22:11:39.975Z,10.10
2022-12-20T22:16:42.242Z,10.10
2022-12-20T22:21:45.309Z,10.10
2022-12-20T22:26:47.206Z,10.10
2022-12-20T22:31:49.160Z,10.10
2022-12-20T22:36:54.594Z,10.10
2022-12-20T22:41:56.528Z,10.10
2022-12-20T22:46:59.674Z,10.10
2022-12-20T22:52:07.275Z,10.10
2022-12-20T22:57:12.696Z,10.20
2022-12-20T23:02:14.756Z,10.10
2022-12-20T23:07:17.049Z,10.10
2022-12-20T23:12:54.442Z,10.10
2022-12-20T23:17:57.050Z,10.10
2022-12-20T23:22:58.882Z,10.10
2022-12-20T23:28:01.194Z,10.10
2022-12-20T23:33:03.032Z,10.10
2022-12-20T23:38:04.978Z,10.00
2022-12-20T23:43:06.822Z,10.00
2022-12-20T23:48:08.697Z,10.00
2022-12-20T23:53:10.521Z,10.00
2022-12-20T23:58:12.602Z,9.90
